TimeCDT,TemperatureF,Dew PointF,Humidity,Sea Level PressureIn,VisibilityMPH,Wind Direction,Wind SpeedMPH,Gust SpeedMPH,PrecipitationIn,Events,Conditions,WindDirDegrees,DateUTC
12:15 AM,50.0,46.4,87,29.92,8.0,SW,4.6,-,N/A,,Clear,220,2014-03-11 05:15:00
12:35 AM,50.0,46.4,87,29.91,9.0,SW,3.5,-,N/A,,Clear,220,2014-03-11 05:35:00
12:55 AM,48.2,46.4,93,29.91,7.0,Calm,Calm,-,N/A,,Clear,0,2014-03-11 05:55:00
1:15 AM,48.2,46.4,93,29.91,8.0,Calm,Calm,-,N/A,,Clear,0,2014-03-11 06:15:00
1:35 AM,48.2,46.4,93,29.90,7.0,Calm,Calm,-,N/A,,Clear,0,2014-03-11 06:35:00
1:55 AM,46.4,44.6,93,29.90,7.0,Calm,Calm,-,N/A,,Clear,0,2014-03-11 06:55:00
2:15 AM,46.4,44.6,93,29.90,7.0,Calm,Calm,-,N/A,,Clear,0,2014-03-11 07:15:00
2:35 AM,46.4,44.6,93,29.89,7.0,Calm,Calm,-,N/A,,Clear,0,2014-03-11 07:35:00
2:55 AM,46.4,44.6,93,29.89,6.0,Calm,Calm,-,N/A,,Clear,0,2014-03-11 07:55:00
3:15 AM,46.4,44.6,93,29.88,6.0,Calm,Calm,-,N/A,,Clear,0,2014-03-11 08:15:00
3:35 AM,44.6,44.6,100,29.87,4.0,Calm,Calm,-,N/A,,Clear,0,2014-03-11 08:35:00
3:55 AM,44.6,44.6,100,29.87,4.0,Calm,Calm,-,N/A,,Clear,0,2014-03-11 08:55:00
4:15 AM,44.6,44.6,100,29.87,4.0,Calm,Calm,-,N/A,,Clear,0,2014-03-11 09:15:00
4:35 AM,46.4,44.6,93,29.86,5.0,Calm,Calm,-,N/A,,Clear,0,2014-03-11 09:35:00
4:55 AM,46.4,44.6,93,29.86,6.0,Calm,Calm,-,N/A,,Clear,0,2014-03-11 09:55:00
5:15 AM,46.4,44.6,93,29.86,5.0,Calm,Calm,-,N/A,,Clear,0,2014-03-11 10:15:00
5:35 AM,44.6,44.6,100,29.86,4.0,Calm,Calm,-,N/A,,Clear,0,2014-03-11 10:35:00
5:55 AM,46.4,44.6,93,29.86,5.0,Calm,Calm,-,N/A,,Clear,0,2014-03-11 10:55:00
6:15 AM,46.4,44.6,93,29.85,3.0,Calm,Calm,-,N/A,,Clear,0,2014-03-11 11:15:00
6:35 AM,44.6,44.6,100,29.85,4.0,Calm,Calm,-,N/A,,Clear,0,2014-03-11 11:35:00
6:55 AM,44.6,44.6,100,29.85,3.0,Calm,Calm,-,N/A,,Clear,0,2014-03-11 11:55:00
7:15 AM,44.6,44.6,100,29.85,1.8,Calm,Calm,-,N/A,,Clear,0,2014-03-11 12:15:00
7:35 AM,44.6,44.6,100,29.85,2.0,Calm,Calm,-,N/A,,Clear,0,2014-03-11 12:35:00
7:55 AM,46.4,46.4,100,29.84,3.0,Calm,Calm,-,N/A,,Clear,0,2014-03-11 12:55:00
8:15 AM,48.2,46.4,93,29.84,5.0,Calm,Calm,-,N/A,,Clear,0,2014-03-11 13:15:00
8:35 AM,51.8,50.0,94,29.85,7.0,Calm,Calm,-,N/A,,Clear,0,2014-03-11 13:35:00
8:55 AM,55.4,50.0,82,29.85,9.0,Calm,Calm,-,N/A,,Clear,0,2014-03-11 13:55:00
9:15 AM,57.2,51.8,82,29.86,8.0,SSW,3.5,-,N/A,,Clear,200,2014-03-11 14:15:00
9:35 AM,57.2,51.8,82,29.86,9.0,South,4.6,-,N/A,,Clear,180,2014-03-11 14:35:00
9:55 AM,59.0,51.8,77,29.87,10.0,Calm,Calm,-,N/A,,Clear,0,2014-03-11 14:55:00
10:15 AM,62.6,53.6,72,29.87,9.0,SW,6.9,-,N/A,,Clear,230,2014-03-11 15:15:00
10:35 AM,62.6,53.6,72,29.86,9.0,SW,9.2,-,N/A,,Clear,230,2014-03-11 15:35:00
10:55 AM,64.4,53.6,68,29.84,9.0,SW,6.9,-,N/A,,Clear,220,2014-03-11 15:55:00
11:15 AM,66.2,53.6,64,29.84,10.0,SW,9.2,-,N/A,,Clear,220,2014-03-11 16:15:00
11:35 AM,68.0,53.6,60,29.82,10.0,SW,8.1,-,N/A,,Clear,220,2014-03-11 16:35:00
11:55 AM,68.0,53.6,60,29.81,10.0,SW,5.8,-,N/A,,Clear,230,2014-03-11 16:55:00
12:15 PM,69.8,53.6,56,29.80,10.0,SW,6.9,-,N/A,,Clear,220,2014-03-11 17:15:00
12:35 PM,71.6,53.6,53,29.79,10.0,SW,9.2,16.1,N/A,,Partly Cloudy,220,2014-03-11 17:35:00
12:55 PM,69.8,53.6,56,29.78,10.0,SW,11.5,18.4,N/A,,Clear,220,2014-03-11 17:55:00
1:15 PM,69.8,53.6,56,29.77,10.0,SW,6.9,-,N/A,,Partly Cloudy,220,2014-03-11 18:15:00
1:35 PM,71.6,53.6,53,29.76,10.0,SSW,5.8,-,N/A,,Clear,210,2014-03-11 18:35:00
1:55 PM,71.6,53.6,53,29.74,10.0,SW,8.1,-,N/A,,Clear,230,2014-03-11 18:55:00
2:15 PM,71.6,53.6,53,29.73,10.0,South,6.9,16.1,N/A,,Clear,170,2014-03-11 19:15:00
2:35 PM,73.4,53.6,50,29.71,10.0,SW,8.1,18.4,N/A,,Partly Cloudy,220,2014-03-11 19:35:00
2:55 PM,71.6,53.6,53,29.72,10.0,SW,11.5,21.9,N/A,,Mostly Cloudy,220,2014-03-11 19:55:00
3:15 PM,71.6,53.6,53,29.71,10.0,SW,5.8,-,N/A,,Mostly Cloudy,220,2014-03-11 20:15:00
3:35 PM,71.6,53.6,53,29.71,10.0,SSW,6.9,-,N/A,,Partly Cloudy,210,2014-03-11 20:35:00
3:55 PM,71.6,53.6,53,29.70,10.0,SW,6.9,-,N/A,,Partly Cloudy,220,2014-03-11 20:55:00
4:15 PM,71.6,55.4,57,29.70,10.0,SW,6.9,-,N/A,,Scattered Clouds,220,2014-03-11 21:15:00
4:35 PM,71.6,55.4,57,29.68,10.0,SSW,4.6,-,N/A,,Partly Cloudy,210,2014-03-11 21:35:00
4:55 PM,71.6,55.4,57,29.67,10.0,SSW,6.9,-,N/A,,Clear,210,2014-03-11 21:55:00
5:15 PM,71.6,55.4,57,29.67,10.0,SW,4.6,-,N/A,,Clear,220,2014-03-11 22:15:00
5:35 PM,71.6,55.4,57,29.67,10.0,Calm,Calm,-,N/A,,Clear,0,2014-03-11 22:35:00
5:55 PM,71.6,55.4,57,29.67,10.0,South,4.6,-,N/A,,Scattered Clouds,190,2014-03-11 22:55:00
6:15 PM,69.8,55.4,60,29.67,10.0,SSW,6.9,18.4,N/A,,Scattered Clouds,200,2014-03-11 23:15:00
6:35 PM,68.0,57.2,68,29.67,10.0,SSW,6.9,-,N/A,,Clear,210,2014-03-11 23:35:00
6:55 PM,66.2,57.2,73,29.66,10.0,Calm,Calm,-,N/A,,Clear,0,2014-03-11 23:55:00
7:15 PM,66.2,57.2,73,29.67,10.0,South,4.6,-,N/A,,Partly Cloudy,180,2014-03-12 00:15:00
7:35 PM,66.2,57.2,73,29.68,10.0,South,6.9,-,N/A,,Clear,190,2014-03-12 00:35:00
7:55 PM,66.2,57.2,73,29.68,10.0,South,5.8,-,N/A,,Scattered Clouds,180,2014-03-12 00:55:00
8:15 PM,66.2,57.2,73,29.68,10.0,SSW,10.4,18.4,N/A,,Mostly Cloudy,200,2014-03-12 01:15:00
8:35 PM,64.4,57.2,77,29.68,10.0,South,8.1,-,N/A,,Mostly Cloudy,180,2014-03-12 01:35:00
8:55 PM,64.4,57.2,77,29.68,9.0,SSW,8.1,-,N/A,,Overcast,200,2014-03-12 01:55:00
9:15 PM,64.4,59.0,83,29.68,10.0,Calm,Calm,-,N/A,,Overcast,0,2014-03-12 02:15:00
9:35 PM,62.6,59.0,88,29.68,10.0,South,4.6,-,N/A,,Overcast,190,2014-03-12 02:35:00
9:55 PM,62.6,57.2,82,29.67,10.0,South,6.9,-,N/A,,Overcast,180,2014-03-12 02:55:00
10:15 PM,62.6,59.0,88,29.67,10.0,South,4.6,-,N/A,,Overcast,170,2014-03-12 03:15:00
10:35 PM,62.6,57.2,82,29.66,10.0,SE,3.5,-,N/A,,Overcast,140,2014-03-12 03:35:00
10:55 PM,62.6,57.2,82,29.63,10.0,South,4.6,-,N/A,,Partly Cloudy,190,2014-03-12 03:55:00
11:15 PM,62.6,57.2,82,29.67,10.0,SW,5.8,-,N/A,,Mostly Cloudy,220,2014-03-12 04:15:00
11:35 PM,62.6,57.2,82,29.67,10.0,SW,6.9,-,N/A,,Overcast,220,2014-03-12 04:35:00
11:55 PM,62.6,57.2,82,29.66,10.0,SSW,8.1,-,N/A,,Overcast,210,2014-03-12 04:55:00